createdAt,value
2022-10-01T00:01:15.378Z,1.02
2022-10-01T00:03:43.072Z,1.58
2022-10-01T00:06:19.004Z,1.23
2022-10-01T00:08:49.330Z,1.23
2022-10-01T00:11:19.326Z,1.90
2022-10-01T00:13:46.743Z,1.40
2022-10-01T00:16:22.591Z,1.25
2022-10-01T00:18:50.311Z,1.27
2022-10-01T00:21:21.361Z,2.05
2022-10-01T00:23:53.183Z,0.77
2022-10-01T00:26:22.710Z,1.30
2022-10-01T00:28:57.638Z,1.42
2022-10-01T00:31:25.351Z,0.70
2022-10-01T00:33:53.899Z,1.58
2022-10-01T00:36:24.256Z,1.65
2022-10-01T00:38:51.191Z,2.40
2022-10-01T00:41:19.444Z,0.68
2022-10-01T00:43:50.991Z,0.77
2022-10-01T00:46:25.271Z,1.52
2022-10-01T00:49:07.233Z,1.42
2022-10-01T00:51:42.783Z,2.78
2022-10-01T00:54:14.911Z,2.05
2022-10-01T00:56:43.518Z,0.77
2022-10-01T00:59:12.353Z,1.65
2022-10-01T01:01:39.593Z,0.65
2022-10-01T01:07:09.328Z,0.63
2022-10-01T01:09:48.420Z,1.85
2022-10-01T01:12:36.942Z,1.23
2022-10-01T01:15:16.234Z,1.40
2022-10-01T01:18:20.935Z,1.67
2022-10-01T01:21:09.074Z,1.75
2022-10-01T01:23:39.720Z,1.70
2022-10-01T01:26:10.495Z,3.00
2022-10-01T01:28:46.103Z,2.13
2022-10-01T01:31:16.886Z,0.52
2022-10-01T01:33:46.682Z,2.13
2022-10-01T01:36:20.528Z,2.03
2022-10-01T01:38:56.545Z,1.42
2022-10-01T01:41:27.430Z,1.73
2022-10-01T01:43:57.611Z,1.88
2022-10-01T01:46:31.748Z,2.25
2022-10-01T01:49:01.207Z,1.35
2022-10-01T01:51:45.755Z,1.38
2022-10-01T01:54:12.834Z,1.92
2022-10-01T01:56:39.820Z,1.83
2022-10-01T01:59:09.579Z,1.23
2022-10-01T02:01:40.911Z,2.03
2022-10-01T02:04:26.194Z,0.73
2022-10-01T02:07:19.480Z,0.73
2022-10-01T02:10:02.064Z,2.90
2022-10-01T02:12:38.978Z,1.42
2022-10-01T02:15:41.535Z,1.25
2022-10-01T02:18:30.259Z,1.75
2022-10-01T02:21:20.618Z,1.75
2022-10-01T02:24:04.013Z,1.92
2022-10-01T02:26:31.477Z,2.05
2022-10-01T02:29:03.632Z,2.15
2022-10-01T02:31:32.683Z,1.85
2022-10-01T02:34:02.395Z,2.03
2022-10-01T02:36:34.274Z,1.90
2022-10-01T02:39:03.065Z,1.83
2022-10-01T02:41:35.786Z,2.40
2022-10-01T02:44:16.362Z,1.77
2022-10-01T02:46:58.851Z,2.30
2022-10-01T02:49:30.510Z,1.58
2022-10-01T02:52:31.454Z,1.73
2022-10-01T02:55:07.277Z,2.73
2022-10-01T02:57:34.857Z,1.65
2022-10-01T03:00:11.231Z,2.17
2022-10-01T03:02:38.333Z,0.43
2022-10-01T03:05:06.273Z,1.05
2022-10-01T03:07:37.198Z,2.30
2022-10-01T03:10:05.323Z,3.17
2022-10-01T03:12:33.235Z,3.00
2022-10-01T03:15:00.253Z,1.77
2022-10-01T03:17:27.519Z,1.67
2022-10-01T03:19:54.960Z,1.85
2022-10-01T03:22:24.276Z,2.25
2022-10-01T03:24:52.507Z,2.67
2022-10-01T03:27:20.832Z,2.53
2022-10-01T03:29:47.988Z,3.20
2022-10-01T03:32:16.604Z,1.25
2022-10-01T03:34:43.917Z,1.52
2022-10-01T03:37:10.852Z,2.22
2022-10-01T03:39:37.822Z,2.50
2022-10-01T03:42:06.076Z,2.78
2022-10-01T03:44:33.827Z,2.10
2022-10-01T03:47:00.827Z,2.97
2022-10-01T03:49:28.083Z,1.52
2022-10-01T03:51:55.237Z,1.70
2022-10-01T03:54:22.657Z,1.75
2022-10-01T03:56:49.713Z,2.00
2022-10-01T03:59:16.833Z,1.80
2022-10-01T04:01:44.005Z,3.92
2022-10-01T04:04:11.048Z,2.65
2022-10-01T04:06:38.035Z,3.20
2022-10-01T04:09:05.359Z,1.85
2022-10-01T04:11:32.629Z,2.33
2022-10-01T04:13:59.949Z,2.38
2022-10-01T04:16:28.245Z,1.30
2022-10-01T04:18:55.578Z,2.38
2022-10-01T04:21:22.541Z,1.73
2022-10-01T04:23:50.411Z,3.22
2022-10-01T04:26:19.125Z,2.13
2022-10-01T04:28:47.009Z,2.33
2022-10-01T04:31:26.603Z,1.83
2022-10-01T04:33:55.402Z,1.90
2022-10-01T04:36:23.935Z,2.05
2022-10-01T04:38:53.383Z,2.50
2022-10-01T04:41:21.877Z,3.58
2022-10-01T04:43:50.592Z,2.35
2022-10-01T04:46:19.164Z,2.45
2022-10-01T04:48:49.884Z,2.47
2022-10-01T04:51:17.324Z,2.90
2022-10-01T04:53:44.810Z,2.33
2022-10-01T04:56:11.765Z,1.52
2022-10-01T04:58:38.785Z,1.40
2022-10-01T05:01:05.830Z,3.13
2022-10-01T05:03:33.051Z,3.97
2022-10-01T05:06:00.666Z,3.08
2022-10-01T05:08:27.733Z,1.58
2022-10-01T05:10:58.663Z,2.85
2022-10-01T05:13:30.513Z,1.33
2022-10-01T05:15:58.428Z,2.92
2022-10-01T05:18:25.610Z,2.83
2022-10-01T05:20:52.777Z,2.65
2022-10-01T05:23:19.687Z,2.05
2022-10-01T05:25:47.189Z,2.38
2022-10-01T05:28:19.647Z,1.15
2022-10-01T05:30:48.942Z,1.48
2022-10-01T05:33:15.869Z,1.75
2022-10-01T05:35:42.823Z,2.05
2022-10-01T05:38:09.746Z,2.45
2022-10-01T05:40:36.965Z,2.40
2022-10-01T05:43:04.725Z,1.85
2022-10-01T05:45:32.538Z,2.15
2022-10-01T05:48:02.181Z,1.80
2022-10-01T05:50:33.270Z,3.53
2022-10-01T05:55:32.104Z,2.28
2022-10-01T05:58:05.445Z,2.03
2022-10-01T06:00:33.725Z,0.85
2022-10-01T06:03:02.717Z,3.03
2022-10-01T06:05:31.671Z,1.40
2022-10-01T06:07:59.169Z,1.98
2022-10-01T06:10:28.218Z,1.88
2022-10-01T06:13:02.500Z,1.83
2022-10-01T06:15:30.149Z,2.25
2022-10-01T06:17:59.451Z,2.88
2022-10-01T06:20:26.406Z,1.65
2022-10-01T06:22:55.397Z,2.08
2022-10-01T06:25:22.359Z,2.15
2022-10-01T06:27:56.629Z,1.33
2022-10-01T06:30:27.974Z,2.70
2022-10-01T06:35:53.996Z,2.22
2022-10-01T06:38:22.495Z,1.50
2022-10-01T06:40:58.081Z,1.67
2022-10-01T06:43:26.736Z,1.20
2022-10-01T06:45:54.294Z,1.75
2022-10-01T06:48:21.657Z,1.58
2022-10-01T06:50:51.488Z,1.77
2022-10-01T06:53:18.868Z,1.88
2022-10-01T06:55:46.605Z,3.13
2022-10-01T06:58:14.927Z,2.95
2022-10-01T07:00:42.976Z,1.80
2022-10-01T07:03:18.870Z,1.00
2022-10-01T07:05:46.520Z,1.80
2022-10-01T07:08:13.946Z,2.67
2022-10-01T07:10:41.815Z,2.70
2022-10-01T07:13:13.249Z,1.15
2022-10-01T07:15:40.787Z,1.90
2022-10-01T07:18:09.745Z,1.80
2022-10-01T07:20:40.399Z,3.15
2022-10-01T07:23:11.503Z,1.83
2022-10-01T07:25:40.547Z,2.28
2022-10-01T07:28:16.914Z,1.75
2022-10-01T07:31:06.829Z,1.88
2022-10-01T07:33:33.941Z,2.53
2022-10-01T07:36:02.341Z,2.35
2022-10-01T07:38:29.494Z,1.70
2022-10-01T07:40:56.629Z,1.52
2022-10-01T07:43:23.528Z,1.67
2022-10-01T07:45:52.482Z,2.08
2022-10-01T07:48:19.597Z,2.40
2022-10-01T07:50:46.642Z,1.75
2022-10-01T07:53:14.211Z,1.65
2022-10-01T07:55:41.224Z,1.92
2022-10-01T07:58:08.351Z,2.10
2022-10-01T08:00:35.533Z,1.55
2022-10-01T08:03:02.766Z,2.53
2022-10-01T08:05:32.622Z,2.00
2022-10-01T08:08:06.380Z,2.03
2022-10-01T08:10:37.586Z,2.78
2022-10-01T08:13:08.403Z,1.58
2022-10-01T08:15:35.629Z,1.45
2022-10-01T08:18:04.208Z,2.90
2022-10-01T08:20:31.617Z,1.90
2022-10-01T08:23:12.286Z,2.15
2022-10-01T08:25:40.101Z,1.38
2022-10-01T08:28:08.576Z,2.33
2022-10-01T08:30:39.495Z,1.73
2022-10-01T08:33:06.866Z,1.85
2022-10-01T08:35:34.105Z,1.33
2022-10-01T08:38:05.263Z,1.67
2022-10-01T08:43:22.337Z,1.17
2022-10-01T08:45:52.839Z,1.90
2022-10-01T08:48:47.386Z,2.25
2022-10-01T08:51:47.284Z,2.33
2022-10-01T08:54:35.592Z,0.93
2022-10-01T08:57:04.932Z,1.60
2022-10-01T08:59:41.344Z,1.25
2022-10-01T09:02:20.108Z,1.35
2022-10-01T09:04:49.230Z,2.35
2022-10-01T09:07:45.278Z,1.92
2022-10-01T09:10:28.511Z,1.25
2022-10-01T09:13:23.110Z,1.67
2022-10-01T09:16:02.197Z,1.35
2022-10-01T09:19:01.247Z,0.80
2022-10-01T09:21:55.429Z,1.27
2022-10-01T09:24:54.350Z,1.73
2022-10-01T09:27:27.024Z,0.75
2022-10-01T09:30:01.754Z,1.30
2022-10-01T09:32:44.261Z,0.93
2022-10-01T09:35:50.101Z,1.23
2022-10-01T09:38:25.861Z,1.38
2022-10-01T09:40:54.986Z,1.52
2022-10-01T09:43:34.398Z,0.88
2022-10-01T09:46:04.539Z,1.63
2022-10-01T09:48:56.765Z,0.70
2022-10-01T09:51:40.270Z,1.00
2022-10-01T09:54:26.568Z,1.00
2022-10-01T09:57:20.460Z,1.58
2022-10-01T09:59:57.586Z,0.80
2022-10-01T10:02:32.559Z,0.80
2022-10-01T10:05:08.104Z,0.98
2022-10-01T10:07:35.326Z,0.98
2022-10-01T10:10:35.884Z,1.25
2022-10-01T10:13:17.457Z,1.23
2022-10-01T10:16:07.846Z,2.28
2022-10-01T10:18:37.055Z,1.30
2022-10-01T10:21:10.938Z,1.05
2022-10-01T10:23:50.807Z,1.60
2022-10-01T10:29:39.845Z,2.20
2022-10-01T10:32:19.386Z,0.63
2022-10-01T10:34:47.230Z,0.88
2022-10-01T10:37:23.564Z,0.90
2022-10-01T10:39:52.406Z,1.60
2022-10-01T10:42:20.182Z,0.50
2022-10-01T10:44:51.231Z,1.10
2022-10-01T10:49:56.949Z,1.52
2022-10-01T10:52:32.414Z,0.77
2022-10-01T10:55:01.020Z,0.80
2022-10-01T10:57:29.044Z,1.55
2022-10-01T10:59:58.546Z,1.45
2022-10-01T11:02:30.623Z,0.73
2022-10-01T11:05:32.031Z,0.82
2022-10-01T11:10:46.129Z,0.98
2022-10-01T11:13:27.992Z,0.90
2022-10-01T11:16:12.706Z,1.25
2022-10-01T11:19:13.294Z,0.93
2022-10-01T11:22:17.984Z,0.95
2022-10-01T11:24:59.964Z,0.93
2022-10-01T11:27:48.033Z,0.43
2022-10-01T11:30:27.550Z,1.33
2022-10-01T11:33:24.634Z,0.65
2022-10-01T11:36:07.372Z,1.00
2022-10-01T11:38:59.665Z,1.05
2022-10-01T11:41:55.074Z,0.20
2022-10-01T11:44:41.747Z,1.85
2022-10-01T11:47:14.595Z,0.68
2022-10-01T11:49:45.882Z,0.52
2022-10-01T11:52:41.297Z,0.80
2022-10-01T11:55:42.248Z,1.35
2022-10-01T11:58:37.860Z,0.47
2022-10-01T12:01:14.508Z,0.57
2022-10-01T12:03:51.273Z,1.10
2022-10-01T12:06:26.791Z,0.77
2022-10-01T12:09:14.836Z,0.80
2022-10-01T12:11:54.545Z,1.17
2022-10-01T12:14:29.764Z,0.55
2022-10-01T12:17:28.566Z,0.73
2022-10-01T12:19:58.734Z,1.42
2022-10-01T12:22:33.251Z,1.90
2022-10-01T12:25:00.365Z,1.42
2022-10-01T12:27:48.215Z,0.57
2022-10-01T12:30:23.112Z,0.80
2022-10-01T12:32:55.739Z,0.90
2022-10-01T12:35:41.178Z,2.15
2022-10-01T12:38:20.064Z,1.40
2022-10-01T12:41:13.909Z,1.10
2022-10-01T12:44:05.178Z,0.98
2022-10-01T12:49:34.146Z,0.93
2022-10-01T12:52:09.443Z,0.52
2022-10-01T12:54:36.328Z,0.30
2022-10-01T12:57:12.150Z,0.50
2022-10-01T13:00:10.378Z,0.85
2022-10-01T13:02:52.005Z,0.70
2022-10-01T13:05:33.612Z,0.38
2022-10-01T13:08:09.406Z,0.10
2022-10-01T13:10:49.133Z,1.42
2022-10-01T13:13:18.992Z,0.40
2022-10-01T13:15:49.691Z,0.70
2022-10-01T13:18:47.315Z,0.25
2022-10-01T13:21:23.410Z,0.30
2022-10-01T13:24:04.358Z,0.45
2022-10-01T13:26:57.856Z,0.77
2022-10-01T13:29:50.760Z,0.65
2022-10-01T13:32:29.462Z,0.40
2022-10-01T13:34:57.634Z,0.15
2022-10-01T13:37:30.484Z,0.50
2022-10-01T13:39:59.180Z,0.38
2022-10-01T13:42:29.270Z,0.55
2022-10-01T13:45:05.398Z,0.32
2022-10-01T13:47:41.017Z,0.20
2022-10-01T13:50:27.613Z,0.28
2022-10-01T13:53:16.912Z,1.00
2022-10-01T13:55:46.557Z,0.25
2022-10-01T13:58:40.083Z,0.52
2022-10-01T14:01:27.628Z,0.20
2022-10-01T14:04:09.181Z,0.80
2022-10-01T14:06:36.547Z,0.15
2022-10-01T14:09:22.315Z,0.30
2022-10-01T14:12:32.292Z,0.45
2022-10-01T14:15:21.072Z,0.20
2022-10-01T14:17:53.226Z,0.65
2022-10-01T14:20:29.015Z,0.43
2022-10-01T14:23:21.869Z,1.48
2022-10-01T14:25:53.342Z,0.75
2022-10-01T14:28:29.887Z,1.38
2022-10-01T14:31:15.403Z,0.63
2022-10-01T14:33:54.377Z,1.08
2022-10-01T14:36:34.932Z,1.17
2022-10-01T14:39:16.584Z,1.30
2022-10-01T14:44:24.883Z,0.10
2022-10-01T14:46:53.352Z,0.93
2022-10-01T14:49:33.061Z,0.35
2022-10-01T14:52:06.745Z,0.40
2022-10-01T14:55:01.970Z,0.65
2022-10-01T14:57:31.922Z,0.68
2022-10-01T15:00:02.147Z,0.22
2022-10-01T15:02:29.927Z,0.97
2022-10-01T15:04:57.815Z,0.40
2022-10-01T15:07:28.385Z,0.30
2022-10-01T15:10:06.473Z,0.40
2022-10-01T15:12:41.328Z,1.02
2022-10-01T15:15:28.698Z,0.52
2022-10-01T15:17:55.902Z,0.57
2022-10-01T15:20:23.030Z,1.30
2022-10-01T15:23:00.411Z,0.40
2022-10-01T15:25:30.341Z,0.98
2022-10-01T15:27:57.391Z,0.65
2022-10-01T15:30:26.738Z,0.55
2022-10-01T15:32:54.279Z,0.35
2022-10-01T15:35:23.593Z,0.32
2022-10-01T15:37:52.494Z,0.20
2022-10-01T15:40:27.883Z,0.75
2022-10-01T15:43:26.360Z,0.75
2022-10-01T15:46:05.570Z,0.55
2022-10-01T15:48:33.725Z,0.40
2022-10-01T15:51:07.134Z,0.57
2022-10-01T15:53:35.540Z,0.73
2022-10-01T15:56:10.886Z,0.50
2022-10-01T15:58:47.528Z,0.50
2022-10-01T16:01:24.798Z,0.47
2022-10-01T16:04:04.968Z,0.77
2022-10-01T16:06:39.254Z,1.00
2022-10-01T16:09:13.846Z,0.70
2022-10-01T16:11:57.049Z,0.30
2022-10-01T16:14:23.952Z,0.65
2022-10-01T16:16:51.070Z,0.57
2022-10-01T16:19:32.029Z,0.52
2022-10-01T16:22:19.228Z,0.63
2022-10-01T16:25:00.873Z,1.15
2022-10-01T16:27:42.789Z,0.25
2022-10-01T16:30:27.072Z,0.30
2022-10-01T16:32:55.443Z,0.73
2022-10-01T16:35:27.951Z,0.57
2022-10-01T16:37:57.987Z,0.57
2022-10-01T16:40:31.005Z,0.65
2022-10-01T16:43:00.279Z,0.13
2022-10-01T16:45:34.908Z,0.55
2022-10-01T16:48:02.894Z,0.38
2022-10-01T16:50:30.206Z,0.35
2022-10-01T16:53:01.439Z,0.50
2022-10-01T16:55:32.537Z,1.20
2022-10-01T17:00:28.261Z,0.90
2022-10-01T17:02:56.403Z,0.65
2022-10-01T17:05:26.638Z,0.60
2022-10-01T17:07:55.112Z,0.30
2022-10-01T17:10:23.757Z,0.80
2022-10-01T17:12:51.490Z,0.57
2022-10-01T17:15:23.589Z,0.25
2022-10-01T17:17:50.705Z,0.68
2022-10-01T17:20:17.667Z,0.65
2022-10-01T17:22:44.698Z,0.70
2022-10-01T17:25:17.148Z,1.38
2022-10-01T17:27:44.737Z,1.10
2022-10-01T17:30:12.455Z,1.17
2022-10-01T17:32:40.440Z,0.55
2022-10-01T17:35:08.027Z,0.73
2022-10-01T17:37:35.185Z,0.98
2022-10-01T17:40:02.221Z,0.98
2022-10-01T17:42:29.508Z,0.50
2022-10-01T17:44:56.460Z,0.63
2022-10-01T17:47:23.696Z,1.20
2022-10-01T17:49:50.639Z,0.85
2022-10-01T17:52:19.111Z,0.80
2022-10-01T17:54:46.158Z,0.45
2022-10-01T17:57:13.974Z,0.93
2022-10-01T17:59:40.977Z,0.93
2022-10-01T18:02:29.664Z,0.82
2022-10-01T18:04:57.703Z,0.80
2022-10-01T18:07:25.106Z,1.50
2022-10-01T18:09:53.874Z,1.33
2022-10-01T18:12:21.063Z,0.65
2022-10-01T18:14:49.885Z,1.25
2022-10-01T18:17:16.948Z,1.35
2022-10-01T18:19:53.295Z,1.67
2022-10-01T18:22:21.771Z,0.75
2022-10-01T18:24:48.740Z,0.80
2022-10-01T18:27:15.820Z,0.98
2022-10-01T18:29:42.762Z,1.33
2022-10-01T18:32:16.969Z,1.20
2022-10-01T18:34:55.262Z,0.90
2022-10-01T18:37:36.267Z,1.23
2022-10-01T18:40:08.701Z,0.88
2022-10-01T18:42:49.490Z,0.50
2022-10-01T18:45:26.698Z,0.88
2022-10-01T18:47:56.705Z,0.95
2022-10-01T18:50:57.224Z,1.42
2022-10-01T18:53:42.252Z,1.50
2022-10-01T18:56:32.430Z,0.85
2022-10-01T18:59:31.469Z,1.43
2022-10-01T19:02:26.429Z,0.80
2022-10-01T19:05:14.714Z,1.13
2022-10-01T19:07:56.303Z,1.35
2022-10-01T19:10:42.610Z,1.08
2022-10-01T19:13:35.533Z,0.47
2022-10-01T19:16:20.258Z,0.65
2022-10-01T19:19:21.176Z,0.85
2022-10-01T19:22:11.348Z,1.08
2022-10-01T19:24:45.249Z,0.38
2022-10-01T19:27:43.462Z,1.17
2022-10-01T19:30:14.044Z,0.90
2022-10-01T19:33:02.063Z,1.58
2022-10-01T19:35:36.342Z,0.88
2022-10-01T19:38:40.844Z,1.30
2022-10-01T19:41:36.361Z,0.90
2022-10-01T19:44:21.388Z,2.47
2022-10-01T19:46:50.384Z,0.47
2022-10-01T19:49:34.658Z,1.45
2022-10-01T19:52:04.316Z,1.20
2022-10-01T19:54:34.045Z,0.82
2022-10-01T19:57:28.824Z,1.13
2022-10-01T20:00:09.580Z,0.60
2022-10-01T20:03:05.513Z,0.98
2022-10-01T20:05:55.476Z,1.25
2022-10-01T20:08:38.459Z,0.50
2022-10-01T20:11:12.457Z,1.17
2022-10-01T20:13:58.060Z,0.90
2022-10-01T20:16:44.016Z,0.55
2022-10-01T20:19:27.482Z,0.90
2022-10-01T20:22:06.675Z,0.73
2022-10-01T20:24:36.705Z,1.23
2022-10-01T20:27:15.674Z,0.82
2022-10-01T20:30:06.049Z,0.60
2022-10-01T20:32:42.069Z,0.53
2022-10-01T20:35:23.953Z,0.60
2022-10-01T20:38:23.028Z,0.68
2022-10-01T20:43:56.195Z,0.68
2022-10-01T20:46:44.467Z,0.38
2022-10-01T20:49:16.495Z,0.45
2022-10-01T20:52:01.146Z,0.95
2022-10-01T20:54:30.230Z,0.52
2022-10-01T20:57:05.225Z,0.73
2022-10-01T20:59:41.979Z,0.35
2022-10-01T21:04:42.467Z,1.70
2022-10-01T21:07:29.490Z,0.45
2022-10-01T21:10:00.576Z,0.75
2022-10-01T21:14:57.250Z,0.22
2022-10-01T21:17:50.109Z,0.28
2022-10-01T21:20:35.617Z,0.25
2022-10-01T21:23:23.810Z,0.55
2022-10-01T21:26:35.773Z,0.90
2022-10-01T21:29:50.455Z,0.70
2022-10-01T21:32:48.042Z,0.73
2022-10-01T21:35:21.212Z,0.68
2022-10-01T21:38:30.145Z,0.55
2022-10-01T21:41:28.238Z,0.30
2022-10-01T21:44:16.243Z,0.38
2022-10-01T21:46:49.310Z,0.88
2022-10-01T21:49:46.935Z,0.55
2022-10-01T21:52:31.726Z,0.30
2022-10-01T21:55:20.839Z,0.90
2022-10-01T21:58:14.032Z,0.43
2022-10-01T22:00:41.860Z,0.30
2022-10-01T22:03:31.338Z,0.32
2022-10-01T22:06:09.999Z,0.40
2022-10-01T22:08:51.367Z,1.02
2022-10-01T22:11:22.916Z,0.65
2022-10-01T22:14:00.181Z,0.45
2022-10-01T22:16:31.956Z,0.73
2022-10-01T22:19:10.054Z,0.30
2022-10-01T22:21:50.157Z,0.40
2022-10-01T22:24:27.163Z,1.10
2022-10-01T22:27:25.670Z,0.35
2022-10-01T22:29:58.497Z,0.35
2022-10-01T22:32:29.850Z,0.52
2022-10-01T22:35:04.576Z,0.60
2022-10-01T22:37:37.620Z,0.20
2022-10-01T22:40:14.960Z,0.08
2022-10-01T22:43:02.927Z,0.75
2022-10-01T22:45:59.942Z,0.03
2022-10-01T22:48:44.662Z,0.40
2022-10-01T22:51:23.627Z,0.20
2022-10-01T22:54:29.556Z,0.45
2022-10-01T22:57:23.847Z,0.73
2022-10-01T23:00:11.442Z,0.73
2022-10-01T23:02:58.870Z,0.10
2022-10-01T23:05:28.894Z,0.85
2022-10-01T23:08:05.969Z,0.20
2022-10-01T23:11:03.662Z,0.00
2022-10-01T23:13:39.473Z,0.17
2022-10-01T23:16:23.478Z,0.98
2022-10-01T23:18:50.432Z,0.20
2022-10-01T23:21:55.451Z,0.22
2022-10-01T23:24:37.291Z,0.80
2022-10-01T23:27:43.691Z,0.45
2022-10-01T23:30:14.428Z,0.40
2022-10-01T23:33:03.927Z,0.88
2022-10-01T23:35:39.301Z,0.30
2022-10-01T23:38:24.298Z,0.70
2022-10-01T23:40:55.780Z,0.45
2022-10-01T23:43:33.446Z,0.05
2022-10-01T23:46:30.005Z,0.43
2022-10-01T23:49:05.373Z,0.13
2022-10-01T23:51:41.097Z,0.15
2022-10-01T23:54:24.347Z,0.85
2022-10-01T23:57:21.762Z,0.90
